sensor_id;sensor_type;location;lat;lon;timestamp;P1;durP1;ratioP1;P2;durP2;ratioP2
21110;SDS011;10713;51.912;4.494;2023-06-10T00:01:39;9.85;;;7.97;;
21110;SDS011;10713;51.912;4.494;2023-06-10T00:04:04;13.52;;;8.70;;
21110;SDS011;10713;51.912;4.494;2023-06-10T00:06:30;13.48;;;9.52;;
21110;SDS011;10713;51.912;4.494;2023-06-10T00:09:01;10.90;;;8.70;;
21110;SDS011;10713;51.912;4.494;2023-06-10T00:11:29;13.60;;;9.43;;
21110;SDS011;10713;51.912;4.494;2023-06-10T00:13:56;12.40;;;8.70;;
21110;SDS011;10713;51.912;4.494;2023-06-10T00:16:21;14.07;;;8.80;;
21110;SDS011;10713;51.912;4.494;2023-06-10T00:18:46;13.07;;;9.15;;
21110;SDS011;10713;51.912;4.494;2023-06-10T00:21:12;10.65;;;9.13;;
21110;SDS011;10713;51.912;4.494;2023-06-10T00:23:38;13.13;;;9.40;;
21110;SDS011;10713;51.912;4.494;2023-06-10T00:26:03;15.50;;;8.95;;
21110;SDS011;10713;51.912;4.494;2023-06-10T00:28:29;13.70;;;9.13;;
21110;SDS011;10713;51.912;4.494;2023-06-10T00:30:55;12.60;;;9.40;;
21110;SDS011;10713;51.912;4.494;2023-06-10T00:33:20;12.25;;;9.20;;
21110;SDS011;10713;51.912;4.494;2023-06-10T00:35:46;16.25;;;9.65;;
21110;SDS011;10713;51.912;4.494;2023-06-10T00:38:13;12.43;;;9.35;;
21110;SDS011;10713;51.912;4.494;2023-06-10T00:40:39;12.70;;;9.35;;
21110;SDS011;10713;51.912;4.494;2023-06-10T00:43:05;15.88;;;9.75;;
21110;SDS011;10713;51.912;4.494;2023-06-10T00:45:31;17.00;;;9.93;;
21110;SDS011;10713;51.912;4.494;2023-06-10T00:47:57;13.55;;;9.55;;
21110;SDS011;10713;51.912;4.494;2023-06-10T00:50:23;13.63;;;10.15;;
21110;SDS011;10713;51.912;4.494;2023-06-10T00:52:48;14.35;;;10.15;;
21110;SDS011;10713;51.912;4.494;2023-06-10T00:55:16;15.70;;;10.10;;
21110;SDS011;10713;51.912;4.494;2023-06-10T00:57:43;15.43;;;10.65;;
21110;SDS011;10713;51.912;4.494;2023-06-10T01:00:10;13.57;;;9.13;;
21110;SDS011;10713;51.912;4.494;2023-06-10T01:02:37;16.55;;;9.90;;
21110;SDS011;10713;51.912;4.494;2023-06-10T01:05:03;12.65;;;9.95;;
21110;SDS011;10713;51.912;4.494;2023-06-10T01:07:32;13.18;;;10.27;;
21110;SDS011;10713;51.912;4.494;2023-06-10T01:10:15;11.45;;;9.63;;
21110;SDS011;10713;51.912;4.494;2023-06-10T01:12:52;15.30;;;10.18;;
21110;SDS011;10713;51.912;4.494;2023-06-10T01:15:24;15.57;;;10.60;;
21110;SDS011;10713;51.912;4.494;2023-06-10T01:17:56;13.77;;;9.82;;
21110;SDS011;10713;51.912;4.494;2023-06-10T01:20:23;18.25;;;10.30;;
21110;SDS011;10713;51.912;4.494;2023-06-10T01:22:51;13.98;;;10.15;;
21110;SDS011;10713;51.912;4.494;2023-06-10T01:25:19;18.42;;;9.90;;
21110;SDS011;10713;51.912;4.494;2023-06-10T01:27:45;17.23;;;11.20;;
21110;SDS011;10713;51.912;4.494;2023-06-10T01:30:18;14.73;;;10.20;;
21110;SDS011;10713;51.912;4.494;2023-06-10T01:32:50;13.27;;;9.82;;
21110;SDS011;10713;51.912;4.494;2023-06-10T01:35:17;15.88;;;10.52;;
21110;SDS011;10713;51.912;4.494;2023-06-10T01:37:45;16.75;;;10.40;;
21110;SDS011;10713;51.912;4.494;2023-06-10T01:40:12;15.65;;;9.60;;
21110;SDS011;10713;51.912;4.494;2023-06-10T01:42:38;12.70;;;9.77;;
21110;SDS011;10713;51.912;4.494;2023-06-10T01:45:04;14.75;;;9.80;;
21110;SDS011;10713;51.912;4.494;2023-06-10T01:47:30;16.80;;;10.45;;
21110;SDS011;10713;51.912;4.494;2023-06-10T01:49:55;13.70;;;9.88;;
21110;SDS011;10713;51.912;4.494;2023-06-10T01:52:21;13.63;;;10.20;;
21110;SDS011;10713;51.912;4.494;2023-06-10T01:54:46;13.63;;;10.05;;
21110;SDS011;10713;51.912;4.494;2023-06-10T01:57:12;16.13;;;8.90;;
21110;SDS011;10713;51.912;4.494;2023-06-10T01:59:37;15.80;;;9.98;;
21110;SDS011;10713;51.912;4.494;2023-06-10T02:02:03;15.48;;;10.00;;
21110;SDS011;10713;51.912;4.494;2023-06-10T02:04:29;14.85;;;10.05;;
21110;SDS011;10713;51.912;4.494;2023-06-10T02:06:55;13.18;;;9.60;;
21110;SDS011;10713;51.912;4.494;2023-06-10T02:09:20;15.00;;;9.80;;
21110;SDS011;10713;51.912;4.494;2023-06-10T02:11:47;15.57;;;10.07;;
21110;SDS011;10713;51.912;4.494;2023-06-10T02:14:13;14.10;;;10.15;;
21110;SDS011;10713;51.912;4.494;2023-06-10T02:16:39;15.68;;;10.27;;
21110;SDS011;10713;51.912;4.494;2023-06-10T02:19:05;13.82;;;10.18;;
21110;SDS011;10713;51.912;4.494;2023-06-10T02:21:31;15.13;;;9.95;;
21110;SDS011;10713;51.912;4.494;2023-06-10T02:23:57;15.40;;;10.18;;
21110;SDS011;10713;51.912;4.494;2023-06-10T02:26:23;15.00;;;10.30;;
21110;SDS011;10713;51.912;4.494;2023-06-10T02:28:50;13.38;;;9.60;;
21110;SDS011;10713;51.912;4.494;2023-06-10T02:31:17;14.10;;;10.35;;
21110;SDS011;10713;51.912;4.494;2023-06-10T02:33:43;14.48;;;10.10;;
21110;SDS011;10713;51.912;4.494;2023-06-10T02:36:09;13.77;;;9.90;;
21110;SDS011;10713;51.912;4.494;2023-06-10T02:38:38;14.02;;;9.18;;
21110;SDS011;10713;51.912;4.494;2023-06-10T02:41:05;14.00;;;9.10;;
21110;SDS011;10713;51.912;4.494;2023-06-10T02:43:31;16.25;;;10.25;;
21110;SDS011;10713;51.912;4.494;2023-06-10T02:45:56;13.35;;;9.48;;
21110;SDS011;10713;51.912;4.494;2023-06-10T02:48:23;14.93;;;9.50;;
21110;SDS011;10713;51.912;4.494;2023-06-10T02:50:49;15.50;;;9.10;;
21110;SDS011;10713;51.912;4.494;2023-06-10T02:53:14;12.52;;;9.18;;
21110;SDS011;10713;51.912;4.494;2023-06-10T02:55:40;13.18;;;9.13;;
21110;SDS011;10713;51.912;4.494;2023-06-10T02:58:06;14.05;;;9.25;;
21110;SDS011;10713;51.912;4.494;2023-06-10T03:00:32;13.98;;;9.32;;
21110;SDS011;10713;51.912;4.494;2023-06-10T03:02:58;13.38;;;8.95;;
21110;SDS011;10713;51.912;4.494;2023-06-10T03:05:27;19.17;;;9.80;;
21110;SDS011;10713;51.912;4.494;2023-06-10T03:07:53;12.98;;;9.25;;
21110;SDS011;10713;51.912;4.494;2023-06-10T03:10:18;16.13;;;9.35;;
21110;SDS011;10713;51.912;4.494;2023-06-10T03:12:43;14.50;;;9.80;;
21110;SDS011;10713;51.912;4.494;2023-06-10T03:15:09;12.30;;;8.95;;
21110;SDS011;10713;51.912;4.494;2023-06-10T03:17:34;15.10;;;9.13;;
21110;SDS011;10713;51.912;4.494;2023-06-10T03:20:00;14.75;;;9.00;;
21110;SDS011;10713;51.912;4.494;2023-06-10T03:22:25;14.38;;;9.25;;
21110;SDS011;10713;51.912;4.494;2023-06-10T03:24:51;12.82;;;8.32;;
21110;SDS011;10713;51.912;4.494;2023-06-10T03:27:16;17.45;;;9.73;;
21110;SDS011;10713;51.912;4.494;2023-06-10T03:29:42;13.18;;;8.88;;
21110;SDS011;10713;51.912;4.494;2023-06-10T03:32:08;11.00;;;8.18;;
21110;SDS011;10713;51.912;4.494;2023-06-10T03:34:33;17.60;;;9.20;;
21110;SDS011;10713;51.912;4.494;2023-06-10T03:36:59;14.38;;;8.60;;
21110;SDS011;10713;51.912;4.494;2023-06-10T03:39:25;15.20;;;9.10;;
21110;SDS011;10713;51.912;4.494;2023-06-10T03:41:50;13.07;;;8.73;;
21110;SDS011;10713;51.912;4.494;2023-06-10T03:44:16;13.10;;;8.32;;
21110;SDS011;10713;51.912;4.494;2023-06-10T03:46:41;11.73;;;8.07;;
21110;SDS011;10713;51.912;4.494;2023-06-10T03:49:07;15.18;;;8.35;;
21110;SDS011;10713;51.912;4.494;2023-06-10T03:51:32;12.43;;;8.13;;
21110;SDS011;10713;51.912;4.494;2023-06-10T03:53:58;12.18;;;8.25;;
21110;SDS011;10713;51.912;4.494;2023-06-10T03:56:23;17.50;;;8.50;;
21110;SDS011;10713;51.912;4.494;2023-06-10T03:58:49;12.05;;;7.40;;
21110;SDS011;10713;51.912;4.494;2023-06-10T04:01:14;19.95;;;8.18;;
21110;SDS011;10713;51.912;4.494;2023-06-10T04:03:40;13.73;;;7.57;;
21110;SDS011;10713;51.912;4.494;2023-06-10T04:06:06;12.63;;;7.45;;
21110;SDS011;10713;51.912;4.494;2023-06-10T04:08:32;16.50;;;7.55;;
21110;SDS011;10713;51.912;4.494;2023-06-10T04:10:58;12.13;;;7.70;;
21110;SDS011;10713;51.912;4.494;2023-06-10T04:13:24;14.00;;;7.00;;
21110;SDS011;10713;51.912;4.494;2023-06-10T04:15:49;14.30;;;7.30;;
21110;SDS011;10713;51.912;4.494;2023-06-10T04:18:14;10.57;;;7.20;;
21110;SDS011;10713;51.912;4.494;2023-06-10T04:20:41;12.65;;;7.18;;
21110;SDS011;10713;51.912;4.494;2023-06-10T04:23:06;13.07;;;7.35;;
21110;SDS011;10713;51.912;4.494;2023-06-10T04:25:32;12.48;;;7.57;;
21110;SDS011;10713;51.912;4.494;2023-06-10T04:27:57;12.23;;;7.05;;
21110;SDS011;10713;51.912;4.494;2023-06-10T04:30:23;12.35;;;7.07;;
21110;SDS011;10713;51.912;4.494;2023-06-10T04:32:48;12.20;;;7.13;;
21110;SDS011;10713;51.912;4.494;2023-06-10T04:35:14;13.05;;;6.88;;
21110;SDS011;10713;51.912;4.494;2023-06-10T04:37:40;12.05;;;7.28;;
21110;SDS011;10713;51.912;4.494;2023-06-10T04:40:06;11.65;;;7.28;;
21110;SDS011;10713;51.912;4.494;2023-06-10T04:42:33;10.43;;;7.05;;
21110;SDS011;10713;51.912;4.494;2023-06-10T04:44:58;9.93;;;6.75;;
21110;SDS011;10713;51.912;4.494;2023-06-10T04:47:25;17.73;;;7.30;;
21110;SDS011;10713;51.912;4.494;2023-06-10T04:49:51;15.07;;;6.85;;
21110;SDS011;10713;51.912;4.494;2023-06-10T04:52:16;11.38;;;7.20;;
21110;SDS011;10713;51.912;4.494;2023-06-10T04:54:42;11.50;;;6.70;;
21110;SDS011;10713;51.912;4.494;2023-06-10T04:57:08;10.80;;;7.10;;
21110;SDS011;10713;51.912;4.494;2023-06-10T04:59:33;11.95;;;6.90;;
21110;SDS011;10713;51.912;4.494;2023-06-10T05:02:02;10.40;;;6.28;;
21110;SDS011;10713;51.912;4.494;2023-06-10T05:04:28;9.85;;;6.15;;
21110;SDS011;10713;51.912;4.494;2023-06-10T05:06:54;10.85;;;6.78;;
21110;SDS011;10713;51.912;4.494;2023-06-10T05:09:20;15.63;;;7.05;;
21110;SDS011;10713;51.912;4.494;2023-06-10T05:11:46;10.70;;;6.90;;
21110;SDS011;10713;51.912;4.494;2023-06-10T05:14:11;15.27;;;6.95;;
21110;SDS011;10713;51.912;4.494;2023-06-10T05:16:37;11.13;;;6.07;;
21110;SDS011;10713;51.912;4.494;2023-06-10T05:19:02;11.82;;;6.75;;
21110;SDS011;10713;51.912;4.494;2023-06-10T05:21:28;12.27;;;6.72;;
21110;SDS011;10713;51.912;4.494;2023-06-10T05:23:53;15.23;;;6.50;;
21110;SDS011;10713;51.912;4.494;2023-06-10T05:26:19;10.90;;;6.43;;
21110;SDS011;10713;51.912;4.494;2023-06-10T05:28:45;8.40;;;6.10;;
21110;SDS011;10713;51.912;4.494;2023-06-10T05:31:10;12.48;;;7.07;;
21110;SDS011;10713;51.912;4.494;2023-06-10T05:33:35;11.93;;;6.53;;
21110;SDS011;10713;51.912;4.494;2023-06-10T05:36:01;10.07;;;5.85;;
21110;SDS011;10713;51.912;4.494;2023-06-10T05:38:27;12.60;;;6.90;;
21110;SDS011;10713;51.912;4.494;2023-06-10T05:40:52;8.50;;;6.30;;
21110;SDS011;10713;51.912;4.494;2023-06-10T05:43:17;14.00;;;6.63;;
21110;SDS011;10713;51.912;4.494;2023-06-10T05:45:43;10.57;;;6.18;;
21110;SDS011;10713;51.912;4.494;2023-06-10T05:48:08;10.65;;;6.53;;
21110;SDS011;10713;51.912;4.494;2023-06-10T05:50:34;13.00;;;6.93;;
21110;SDS011;10713;51.912;4.494;2023-06-10T05:53:03;9.45;;;6.13;;
21110;SDS011;10713;51.912;4.494;2023-06-10T05:55:29;10.43;;;6.13;;
21110;SDS011;10713;51.912;4.494;2023-06-10T05:57:58;10.83;;;6.37;;
21110;SDS011;10713;51.912;4.494;2023-06-10T06:00:25;12.02;;;6.70;;
21110;SDS011;10713;51.912;4.494;2023-06-10T06:02:51;9.98;;;6.60;;
21110;SDS011;10713;51.912;4.494;2023-06-10T06:05:17;10.40;;;6.50;;
21110;SDS011;10713;51.912;4.494;2023-06-10T06:07:43;13.48;;;6.75;;
21110;SDS011;10713;51.912;4.494;2023-06-10T06:10:08;12.73;;;6.20;;
21110;SDS011;10713;51.912;4.494;2023-06-10T06:12:34;9.98;;;6.53;;
21110;SDS011;10713;51.912;4.494;2023-06-10T06:14:59;10.77;;;6.97;;
21110;SDS011;10713;51.912;4.494;2023-06-10T06:17:24;11.40;;;6.53;;
21110;SDS011;10713;51.912;4.494;2023-06-10T06:19:50;13.20;;;6.85;;
21110;SDS011;10713;51.912;4.494;2023-06-10T06:22:15;10.93;;;6.70;;
21110;SDS011;10713;51.912;4.494;2023-06-10T06:24:44;13.20;;;7.00;;
21110;SDS011;10713;51.912;4.494;2023-06-10T06:27:10;15.83;;;7.07;;
21110;SDS011;10713;51.912;4.494;2023-06-10T06:29:35;9.00;;;6.38;;
21110;SDS011;10713;51.912;4.494;2023-06-10T06:32:00;13.70;;;7.05;;
21110;SDS011;10713;51.912;4.494;2023-06-10T06:34:26;9.63;;;6.35;;
21110;SDS011;10713;51.912;4.494;2023-06-10T06:36:51;12.27;;;6.60;;
21110;SDS011;10713;51.912;4.494;2023-06-10T06:39:17;13.50;;;6.25;;
21110;SDS011;10713;51.912;4.494;2023-06-10T06:41:42;11.53;;;6.80;;
21110;SDS011;10713;51.912;4.494;2023-06-10T06:44:07;12.57;;;6.67;;
21110;SDS011;10713;51.912;4.494;2023-06-10T06:46:32;10.23;;;6.55;;
21110;SDS011;10713;51.912;4.494;2023-06-10T06:48:58;11.27;;;6.70;;
21110;SDS011;10713;51.912;4.494;2023-06-10T06:51:23;13.43;;;7.07;;
21110;SDS011;10713;51.912;4.494;2023-06-10T06:53:48;13.50;;;6.60;;
21110;SDS011;10713;51.912;4.494;2023-06-10T06:56:16;10.88;;;6.05;;
21110;SDS011;10713;51.912;4.494;2023-06-10T06:58:42;12.82;;;7.38;;
21110;SDS011;10713;51.912;4.494;2023-06-10T07:01:07;10.67;;;6.30;;
21110;SDS011;10713;51.912;4.494;2023-06-10T07:03:32;10.97;;;6.73;;
21110;SDS011;10713;51.912;4.494;2023-06-10T07:05:58;12.48;;;6.50;;
21110;SDS011;10713;51.912;4.494;2023-06-10T07:08:23;11.07;;;6.70;;
21110;SDS011;10713;51.912;4.494;2023-06-10T07:10:48;11.53;;;6.83;;
21110;SDS011;10713;51.912;4.494;2023-06-10T07:13:14;12.32;;;6.55;;
21110;SDS011;10713;51.912;4.494;2023-06-10T07:15:39;9.15;;;6.03;;
21110;SDS011;10713;51.912;4.494;2023-06-10T07:18:05;9.52;;;6.85;;
21110;SDS011;10713;51.912;4.494;2023-06-10T07:20:30;12.93;;;6.78;;
21110;SDS011;10713;51.912;4.494;2023-06-10T07:22:55;9.82;;;6.30;;
21110;SDS011;10713;51.912;4.494;2023-06-10T07:25:21;13.40;;;7.05;;
21110;SDS011;10713;51.912;4.494;2023-06-10T07:27:46;9.50;;;6.85;;
21110;SDS011;10713;51.912;4.494;2023-06-10T07:30:12;13.70;;;7.10;;
21110;SDS011;10713;51.912;4.494;2023-06-10T07:32:37;9.05;;;6.43;;
21110;SDS011;10713;51.912;4.494;2023-06-10T07:35:03;11.32;;;6.80;;
21110;SDS011;10713;51.912;4.494;2023-06-10T07:37:30;10.93;;;6.60;;
21110;SDS011;10713;51.912;4.494;2023-06-10T07:39:56;9.67;;;6.67;;
21110;SDS011;10713;51.912;4.494;2023-06-10T07:42:21;13.27;;;6.88;;
21110;SDS011;10713;51.912;4.494;2023-06-10T07:44:47;10.30;;;6.70;;
21110;SDS011;10713;51.912;4.494;2023-06-10T07:47:12;8.57;;;6.05;;
21110;SDS011;10713;51.912;4.494;2023-06-10T07:49:38;10.45;;;6.30;;
21110;SDS011;10713;51.912;4.494;2023-06-10T07:52:04;10.25;;;6.30;;
21110;SDS011;10713;51.912;4.494;2023-06-10T07:54:30;9.27;;;5.88;;
21110;SDS011;10713;51.912;4.494;2023-06-10T07:56:56;9.23;;;6.07;;
21110;SDS011;10713;51.912;4.494;2023-06-10T07:59:21;11.17;;;6.53;;
21110;SDS011;10713;51.912;4.494;2023-06-10T08:01:46;11.02;;;6.10;;
21110;SDS011;10713;51.912;4.494;2023-06-10T08:04:12;11.98;;;6.13;;
21110;SDS011;10713;51.912;4.494;2023-06-10T08:06:37;9.10;;;5.93;;
21110;SDS011;10713;51.912;4.494;2023-06-10T08:09:03;11.43;;;6.22;;
21110;SDS011;10713;51.912;4.494;2023-06-10T08:11:28;11.88;;;6.50;;
21110;SDS011;10713;51.912;4.494;2023-06-10T08:13:54;8.73;;;6.53;;
21110;SDS011;10713;51.912;4.494;2023-06-10T08:16:20;11.63;;;6.63;;
21110;SDS011;10713;51.912;4.494;2023-06-10T08:18:45;8.77;;;6.43;;
21110;SDS011;10713;51.912;4.494;2023-06-10T08:21:11;8.45;;;6.15;;
21110;SDS011;10713;51.912;4.494;2023-06-10T08:23:36;9.70;;;6.15;;
21110;SDS011;10713;51.912;4.494;2023-06-10T08:26:02;8.18;;;5.95;;
21110;SDS011;10713;51.912;4.494;2023-06-10T08:28:27;9.43;;;6.28;;
21110;SDS011;10713;51.912;4.494;2023-06-10T08:30:52;8.98;;;5.97;;
21110;SDS011;10713;51.912;4.494;2023-06-10T08:33:18;9.63;;;6.40;;
21110;SDS011;10713;51.912;4.494;2023-06-10T08:35:43;9.52;;;6.28;;
21110;SDS011;10713;51.912;4.494;2023-06-10T08:38:09;11.25;;;5.97;;
21110;SDS011;10713;51.912;4.494;2023-06-10T08:40:34;11.20;;;6.25;;
21110;SDS011;10713;51.912;4.494;2023-06-10T08:43:06;11.38;;;6.15;;
21110;SDS011;10713;51.912;4.494;2023-06-10T08:45:36;15.15;;;5.97;;
21110;SDS011;10713;51.912;4.494;2023-06-10T08:48:03;8.98;;;6.20;;
21110;SDS011;10713;51.912;4.494;2023-06-10T08:50:35;9.52;;;6.53;;
21110;SDS011;10713;51.912;4.494;2023-06-10T08:53:04;9.88;;;5.75;;
21110;SDS011;10713;51.912;4.494;2023-06-10T08:55:31;11.02;;;6.07;;
21110;SDS011;10713;51.912;4.494;2023-06-10T08:57:58;6.65;;;5.40;;
21110;SDS011;10713;51.912;4.494;2023-06-10T09:00:24;11.20;;;6.40;;
21110;SDS011;10713;51.912;4.494;2023-06-10T09:02:51;7.95;;;5.82;;
21110;SDS011;10713;51.912;4.494;2023-06-10T09:05:17;11.52;;;6.32;;
21110;SDS011;10713;51.912;4.494;2023-06-10T09:07:45;9.55;;;6.10;;
21110;SDS011;10713;51.912;4.494;2023-06-10T09:10:12;8.20;;;5.75;;
21110;SDS011;10713;51.912;4.494;2023-06-10T09:12:38;10.13;;;5.85;;
21110;SDS011;10713;51.912;4.494;2023-06-10T09:15:04;8.43;;;5.97;;
21110;SDS011;10713;51.912;4.494;2023-06-10T09:17:30;8.57;;;6.25;;
21110;SDS011;10713;51.912;4.494;2023-06-10T09:19:56;8.65;;;5.68;;
21110;SDS011;10713;51.912;4.494;2023-06-10T09:22:22;7.03;;;5.10;;
21110;SDS011;10713;51.912;4.494;2023-06-10T09:24:48;8.13;;;5.55;;
21110;SDS011;10713;51.912;4.494;2023-06-10T09:27:14;9.07;;;5.63;;
21110;SDS011;10713;51.912;4.494;2023-06-10T09:29:52;8.82;;;5.72;;
21110;SDS011;10713;51.912;4.494;2023-06-10T09:32:19;9.30;;;5.82;;
21110;SDS011;10713;51.912;4.494;2023-06-10T09:34:45;9.05;;;6.13;;
21110;SDS011;10713;51.912;4.494;2023-06-10T09:37:11;9.75;;;5.38;;
21110;SDS011;10713;51.912;4.494;2023-06-10T09:39:38;8.15;;;5.25;;
21110;SDS011;10713;51.912;4.494;2023-06-10T09:42:25;7.72;;;5.60;;
21110;SDS011;10713;51.912;4.494;2023-06-10T09:44:50;7.97;;;5.43;;
21110;SDS011;10713;51.912;4.494;2023-06-10T09:47:22;8.32;;;6.13;;
21110;SDS011;10713;51.912;4.494;2023-06-10T09:49:48;8.40;;;5.40;;
21110;SDS011;10713;51.912;4.494;2023-06-10T09:52:14;10.60;;;5.55;;
21110;SDS011;10713;51.912;4.494;2023-06-10T09:54:46;6.65;;;5.32;;
21110;SDS011;10713;51.912;4.494;2023-06-10T09:57:12;9.05;;;6.07;;
21110;SDS011;10713;51.912;4.494;2023-06-10T09:59:37;7.45;;;5.30;;
21110;SDS011;10713;51.912;4.494;2023-06-10T10:02:03;9.82;;;5.95;;
21110;SDS011;10713;51.912;4.494;2023-06-10T10:04:29;10.52;;;5.70;;
21110;SDS011;10713;51.912;4.494;2023-06-10T10:06:54;10.13;;;5.75;;
21110;SDS011;10713;51.912;4.494;2023-06-10T10:09:20;7.60;;;5.80;;
21110;SDS011;10713;51.912;4.494;2023-06-10T10:11:45;10.25;;;5.70;;
21110;SDS011;10713;51.912;4.494;2023-06-10T10:14:13;8.57;;;5.70;;
21110;SDS011;10713;51.912;4.494;2023-06-10T10:16:41;7.47;;;5.63;;
21110;SDS011;10713;51.912;4.494;2023-06-10T10:19:10;7.07;;;5.35;;
21110;SDS011;10713;51.912;4.494;2023-06-10T10:21:43;10.57;;;5.45;;
21110;SDS011;10713;51.912;4.494;2023-06-10T10:24:20;10.65;;;6.07;;
21110;SDS011;10713;51.912;4.494;2023-06-10T10:26:48;7.30;;;5.70;;
21110;SDS011;10713;51.912;4.494;2023-06-10T10:31:58;8.43;;;5.40;;
21110;SDS011;10713;51.912;4.494;2023-06-10T10:37:43;7.60;;;5.13;;
21110;SDS011;10713;51.912;4.494;2023-06-10T10:40:09;6.75;;;5.22;;
21110;SDS011;10713;51.912;4.494;2023-06-10T10:42:35;6.95;;;5.47;;
21110;SDS011;10713;51.912;4.494;2023-06-10T10:45:01;8.95;;;6.22;;
21110;SDS011;10713;51.912;4.494;2023-06-10T10:47:27;9.20;;;5.63;;
21110;SDS011;10713;51.912;4.494;2023-06-10T10:49:56;11.32;;;6.00;;
21110;SDS011;10713;51.912;4.494;2023-06-10T10:52:25;10.35;;;5.55;;
21110;SDS011;10713;51.912;4.494;2023-06-10T10:54:53;7.88;;;5.25;;
21110;SDS011;10713;51.912;4.494;2023-06-10T10:57:20;9.07;;;5.18;;
21110;SDS011;10713;51.912;4.494;2023-06-10T10:59:52;10.30;;;5.93;;
21110;SDS011;10713;51.912;4.494;2023-06-10T11:02:34;7.40;;;5.80;;
21110;SDS011;10713;51.912;4.494;2023-06-10T11:05:00;7.45;;;5.95;;
21110;SDS011;10713;51.912;4.494;2023-06-10T11:07:29;9.57;;;6.15;;
21110;SDS011;10713;51.912;4.494;2023-06-10T11:12:25;10.18;;;6.53;;
21110;SDS011;10713;51.912;4.494;2023-06-10T11:14:54;10.82;;;6.10;;
21110;SDS011;10713;51.912;4.494;2023-06-10T11:17:21;11.55;;;5.95;;
21110;SDS011;10713;51.912;4.494;2023-06-10T11:19:47;8.13;;;5.88;;
21110;SDS011;10713;51.912;4.494;2023-06-10T11:22:21;10.52;;;5.75;;
21110;SDS011;10713;51.912;4.494;2023-06-10T11:24:50;10.00;;;6.38;;
21110;SDS011;10713;51.912;4.494;2023-06-10T11:27:16;8.02;;;5.95;;
21110;SDS011;10713;51.912;4.494;2023-06-10T11:29:58;9.63;;;6.10;;
21110;SDS011;10713;51.912;4.494;2023-06-10T11:32:44;10.20;;;5.95;;
21110;SDS011;10713;51.912;4.494;2023-06-10T11:35:10;11.98;;;5.93;;
21110;SDS011;10713;51.912;4.494;2023-06-10T11:37:36;11.40;;;5.63;;
21110;SDS011;10713;51.912;4.494;2023-06-10T11:40:01;11.25;;;6.25;;
21110;SDS011;10713;51.912;4.494;2023-06-10T11:42:27;7.22;;;5.40;;
21110;SDS011;10713;51.912;4.494;2023-06-10T11:44:53;7.20;;;5.45;;
21110;SDS011;10713;51.912;4.494;2023-06-10T11:47:19;7.40;;;5.95;;
21110;SDS011;10713;51.912;4.494;2023-06-10T11:49:45;10.23;;;5.97;;
21110;SDS011;10713;51.912;4.494;2023-06-10T11:52:25;9.38;;;6.22;;
21110;SDS011;10713;51.912;4.494;2023-06-10T11:54:55;11.32;;;5.90;;
21110;SDS011;10713;51.912;4.494;2023-06-10T11:57:20;12.40;;;5.93;;
21110;SDS011;10713;51.912;4.494;2023-06-10T11:59:46;7.93;;;5.63;;
21110;SDS011;10713;51.912;4.494;2023-06-10T12:02:15;11.13;;;6.40;;
21110;SDS011;10713;51.912;4.494;2023-06-10T12:04:41;19.75;;;5.80;;
21110;SDS011;10713;51.912;4.494;2023-06-10T12:07:07;10.25;;;5.90;;
21110;SDS011;10713;51.912;4.494;2023-06-10T12:09:32;7.93;;;5.63;;
21110;SDS011;10713;51.912;4.494;2023-06-10T12:12:04;10.35;;;5.78;;
21110;SDS011;10713;51.912;4.494;2023-06-10T12:14:50;11.98;;;5.85;;
21110;SDS011;10713;51.912;4.494;2023-06-10T12:17:23;8.68;;;5.80;;
21110;SDS011;10713;51.912;4.494;2023-06-10T12:19:49;10.93;;;6.20;;
21110;SDS011;10713;51.912;4.494;2023-06-10T12:22:15;7.03;;;5.93;;
21110;SDS011;10713;51.912;4.494;2023-06-10T12:24:44;8.30;;;5.72;;
21110;SDS011;10713;51.912;4.494;2023-06-10T12:27:24;10.30;;;6.07;;
21110;SDS011;10713;51.912;4.494;2023-06-10T12:29:53;7.88;;;6.05;;
21110;SDS011;10713;51.912;4.494;2023-06-10T12:32:34;10.30;;;5.80;;
21110;SDS011;10713;51.912;4.494;2023-06-10T12:35:03;9.38;;;6.43;;
21110;SDS011;10713;51.912;4.494;2023-06-10T12:37:29;8.45;;;5.78;;
21110;SDS011;10713;51.912;4.494;2023-06-10T12:39:58;9.20;;;5.80;;
21110;SDS011;10713;51.912;4.494;2023-06-10T12:42:26;7.05;;;5.72;;
21110;SDS011;10713;51.912;4.494;2023-06-10T12:44:54;7.80;;;5.35;;
21110;SDS011;10713;51.912;4.494;2023-06-10T12:47:28;9.25;;;6.10;;
21110;SDS011;10713;51.912;4.494;2023-06-10T12:49:56;7.03;;;5.50;;
21110;SDS011;10713;51.912;4.494;2023-06-10T12:52:23;8.70;;;5.95;;
21110;SDS011;10713;51.912;4.494;2023-06-10T12:54:49;9.15;;;5.95;;
21110;SDS011;10713;51.912;4.494;2023-06-10T12:57:14;8.18;;;6.38;;
21110;SDS011;10713;51.912;4.494;2023-06-10T12:59:40;9.48;;;6.20;;
21110;SDS011;10713;51.912;4.494;2023-06-10T13:02:06;8.40;;;6.05;;
21110;SDS011;10713;51.912;4.494;2023-06-10T13:04:32;9.90;;;6.03;;
21110;SDS011;10713;51.912;4.494;2023-06-10T13:06:57;8.43;;;6.30;;
21110;SDS011;10713;51.912;4.494;2023-06-10T13:09:24;8.65;;;5.93;;
21110;SDS011;10713;51.912;4.494;2023-06-10T13:11:49;9.95;;;6.15;;
21110;SDS011;10713;51.912;4.494;2023-06-10T13:14:15;13.80;;;6.25;;
21110;SDS011;10713;51.912;4.494;2023-06-10T13:16:40;9.18;;;6.35;;
21110;SDS011;10713;51.912;4.494;2023-06-10T13:19:05;8.10;;;6.15;;
21110;SDS011;10713;51.912;4.494;2023-06-10T13:21:34;8.10;;;5.93;;
21110;SDS011;10713;51.912;4.494;2023-06-10T13:24:00;13.82;;;6.13;;
21110;SDS011;10713;51.912;4.494;2023-06-10T13:26:25;9.55;;;5.93;;
21110;SDS011;10713;51.912;4.494;2023-06-10T13:28:51;11.10;;;6.18;;
21110;SDS011;10713;51.912;4.494;2023-06-10T13:31:17;11.95;;;6.05;;
21110;SDS011;10713;51.912;4.494;2023-06-10T13:33:43;19.38;;;6.72;;
21110;SDS011;10713;51.912;4.494;2023-06-10T13:36:08;8.55;;;6.03;;
21110;SDS011;10713;51.912;4.494;2023-06-10T13:38:34;7.22;;;6.10;;
21110;SDS011;10713;51.912;4.494;2023-06-10T13:40:59;8.65;;;5.55;;
21110;SDS011;10713;51.912;4.494;2023-06-10T13:43:25;8.13;;;5.68;;
21110;SDS011;10713;51.912;4.494;2023-06-10T13:45:50;8.07;;;6.03;;
21110;SDS011;10713;51.912;4.494;2023-06-10T13:48:16;8.75;;;5.82;;
21110;SDS011;10713;51.912;4.494;2023-06-10T13:50:41;8.20;;;5.55;;
21110;SDS011;10713;51.912;4.494;2023-06-10T13:53:10;11.30;;;5.78;;
21110;SDS011;10713;51.912;4.494;2023-06-10T13:55:36;10.00;;;6.13;;
21110;SDS011;10713;51.912;4.494;2023-06-10T13:58:01;8.65;;;5.60;;
21110;SDS011;10713;51.912;4.494;2023-06-10T14:00:26;6.90;;;5.45;;
21110;SDS011;10713;51.912;4.494;2023-06-10T14:02:53;7.70;;;5.93;;
21110;SDS011;10713;51.912;4.494;2023-06-10T14:05:18;8.70;;;5.85;;
21110;SDS011;10713;51.912;4.494;2023-06-10T14:07:44;7.90;;;5.95;;
21110;SDS011;10713;51.912;4.494;2023-06-10T14:10:09;7.88;;;6.00;;
21110;SDS011;10713;51.912;4.494;2023-06-10T14:12:35;8.60;;;5.90;;
21110;SDS011;10713;51.912;4.494;2023-06-10T14:15:01;8.05;;;6.05;;
21110;SDS011;10713;51.912;4.494;2023-06-10T14:17:26;8.93;;;5.60;;
21110;SDS011;10713;51.912;4.494;2023-06-10T14:19:51;10.68;;;6.70;;
21110;SDS011;10713;51.912;4.494;2023-06-10T14:22:17;10.45;;;6.07;;
21110;SDS011;10713;51.912;4.494;2023-06-10T14:24:42;9.85;;;5.97;;
21110;SDS011;10713;51.912;4.494;2023-06-10T14:27:07;11.27;;;7.18;;
21110;SDS011;10713;51.912;4.494;2023-06-10T14:29:33;8.63;;;5.90;;
21110;SDS011;10713;51.912;4.494;2023-06-10T14:31:59;7.60;;;5.80;;
21110;SDS011;10713;51.912;4.494;2023-06-10T14:34:24;9.50;;;5.57;;
21110;SDS011;10713;51.912;4.494;2023-06-10T14:36:53;6.82;;;5.72;;
21110;SDS011;10713;51.912;4.494;2023-06-10T14:39:19;7.07;;;5.63;;
21110;SDS011;10713;51.912;4.494;2023-06-10T14:41:45;8.35;;;5.90;;
21110;SDS011;10713;51.912;4.494;2023-06-10T14:44:10;8.95;;;6.00;;